createdAt,value
2022-08-05T00:00:08.073Z,22.8
2022-08-05T00:01:20.460Z,23
2022-08-05T00:02:11.229Z,22.8
2022-08-05T00:03:07.630Z,22.8
2022-08-05T00:04:08.282Z,22.8
2022-08-05T00:05:09.259Z,22.8
2022-08-05T00:06:23.480Z,22.7
2022-08-05T00:07:32.104Z,22.7
2022-08-05T00:08:20.118Z,22.8
2022-08-05T00:09:12.637Z,22.8
2022-08-05T00:10:07.852Z,22.9
2022-08-05T00:11:20.233Z,22.9
2022-08-05T00:12:08.021Z,22.8
2022-08-05T00:13:08.262Z,22.6
2022-08-05T00:14:11.934Z,22.6
2022-08-05T00:15:14.109Z,22.8
2022-08-05T00:16:08.697Z,22.8
2022-08-05T00:17:18.873Z,22.9
2022-08-05T00:18:08.442Z,23
2022-08-05T00:19:09.576Z,23
2022-08-05T00:20:08.582Z,23
2022-08-05T00:21:08.897Z,23
2022-08-05T00:22:11.045Z,22.9
2022-08-05T00:23:12.661Z,22.8
2022-08-05T00:24:10.204Z,22.8
2022-08-05T00:25:10.497Z,22.7
2022-08-05T00:26:09.022Z,22.7
2022-08-05T00:27:10.208Z,22.6
2022-08-05T00:28:21.078Z,22.4
2022-08-05T00:29:14.459Z,22.4
2022-08-05T00:30:11.239Z,22.4
2022-08-05T00:31:09.380Z,22.5
2022-08-05T00:32:12.679Z,22.4
2022-08-05T00:33:15.576Z,22.3
2022-08-05T00:34:43.216Z,22.3
2022-08-05T00:35:10.356Z,22.3
2022-08-05T00:36:15.272Z,22.4
2022-08-05T00:37:13.999Z,22.2
2022-08-05T00:38:17.690Z,22.1
2022-08-05T00:39:15.118Z,22.2
2022-08-05T00:40:17.567Z,22.1
2022-08-05T00:43:24.849Z,22.1
2022-08-05T00:47:52.934Z,22.1
2022-08-05T00:49:44.556Z,21.9
2022-08-05T00:49:44.569Z,21.8
2022-08-05T00:50:12.851Z,21.8
2022-08-05T00:51:50.179Z,21.8
2022-08-05T00:52:28.158Z,21.9
2022-08-05T00:53:45.477Z,21.9
2022-08-05T00:54:28.039Z,21.9
2022-08-05T00:55:33.920Z,22
2022-08-05T00:56:26.184Z,22.2
2022-08-05T00:57:31.939Z,22.3
2022-08-05T00:58:29.141Z,22.2
2022-08-05T00:59:26.922Z,22.3
2022-08-05T01:00:26.629Z,22.4
2022-08-05T01:01:43.067Z,22.4
2022-08-05T01:02:28.404Z,22.5
2022-08-05T01:03:30.788Z,22.5
2022-08-05T01:04:29.695Z,22.6
2022-08-05T01:05:27.455Z,22.5
2022-08-05T01:06:32.318Z,22.4
2022-08-05T01:07:31.582Z,22.3
2022-08-05T01:08:30.113Z,22.4
2022-08-05T01:09:27.420Z,22.5
2022-08-05T01:10:27.104Z,22.5
2022-08-05T01:11:33.801Z,22.4
2022-08-05T01:12:29.647Z,22.3
2022-08-05T01:13:57.154Z,22.3
2022-08-05T01:14:28.183Z,22.4
2022-08-05T01:15:35.218Z,22.4
2022-08-05T01:16:27.584Z,22.5
2022-08-05T01:17:27.585Z,22.6
2022-08-05T01:18:27.935Z,22.6
2022-08-05T01:19:30.235Z,22.4
2022-08-05T01:20:29.660Z,22.3
2022-08-05T01:21:37.984Z,22.5
2022-08-05T01:22:28.314Z,22.6
2022-08-05T01:23:34.636Z,22.7
2022-08-05T01:24:30.181Z,22.8
2022-08-05T01:25:40.243Z,22.8
2022-08-05T01:26:29.560Z,22.7
2022-08-05T01:27:28.716Z,22.7
2022-08-05T01:28:28.691Z,22.7
2022-08-05T01:29:28.682Z,22.6
2022-08-05T01:30:34.385Z,22.6
2022-08-05T01:31:29.453Z,22.6
2022-08-05T01:32:30.612Z,22.6
2022-08-05T01:33:35.260Z,22.6
2022-08-05T01:34:29.067Z,22.6
2022-08-05T01:35:50.458Z,22.6
2022-08-05T01:36:28.966Z,22.7
2022-08-05T01:37:29.171Z,22.6
2022-08-05T01:38:30.512Z,22.6
2022-08-05T01:39:36.121Z,22.5
2022-08-05T01:40:29.288Z,22.3
2022-08-05T01:41:29.351Z,22
2022-08-05T01:42:29.368Z,21.9
2022-08-05T01:43:29.568Z,21.9
2022-08-05T01:44:34.318Z,21.8
2022-08-05T01:45:34.833Z,21.8
2022-08-05T01:46:41.843Z,21.9
2022-08-05T01:47:39.093Z,22.1
2022-08-05T01:48:33.143Z,22.1
2022-08-05T01:49:42.761Z,22
2022-08-05T01:50:30.224Z,22.1
2022-08-05T01:51:30.380Z,22.2
2022-08-05T01:52:32.761Z,22.2
2022-08-05T01:53:55.285Z,22.3
2022-08-05T01:54:30.348Z,22.3
2022-08-05T01:55:30.435Z,22.3
2022-08-05T01:58:08.475Z,22.3
2022-08-05T01:58:08.789Z,22.3
2022-08-05T01:58:40.602Z,22.2
2022-08-05T01:59:32.377Z,22
2022-08-05T02:00:33.568Z,21.8
2022-08-05T02:01:37.950Z,21.8
2022-08-05T02:02:33.719Z,21.8
2022-08-05T02:03:33.908Z,21.8
2022-08-05T02:04:33.380Z,21.8
2022-08-05T02:05:34.058Z,21.7
2022-08-05T02:06:33.727Z,21.6
2022-08-05T02:07:31.440Z,21.5
2022-08-05T02:08:33.520Z,21.5
2022-08-05T02:09:33.801Z,21.5
2022-08-05T02:10:38.327Z,21.5
2022-08-05T02:11:34.118Z,21.5
2022-08-05T02:12:32.948Z,21.7
2022-08-05T02:13:36.407Z,21.7
2022-08-05T02:14:31.836Z,21.6
2022-08-05T02:15:33.623Z,21.7
2022-08-05T02:16:34.394Z,21.7
2022-08-05T02:18:29.060Z,21.6
2022-08-05T02:18:41.872Z,21.6
2022-08-05T02:19:34.972Z,21.5
2022-08-05T02:20:32.391Z,21.5
2022-08-05T02:21:43.160Z,21.4
2022-08-05T02:22:33.962Z,21.4
2022-08-05T02:23:33.478Z,21.4
2022-08-05T02:24:32.428Z,21.3
2022-08-05T02:25:33.554Z,21.3
2022-08-05T02:26:32.814Z,21.3
2022-08-05T02:27:58.807Z,21.3
2022-08-05T02:28:37.955Z,21.3
2022-08-05T02:29:58.280Z,21.2
2022-08-05T02:30:37.941Z,21.2
2022-08-05T02:31:34.718Z,21.3
2022-08-05T02:32:33.065Z,21.2
2022-08-05T02:33:35.816Z,21.2
2022-08-05T02:34:35.660Z,21.1
2022-08-05T02:35:37.490Z,21
2022-08-05T02:36:35.359Z,21
2022-08-05T02:37:33.219Z,21
2022-08-05T02:38:35.318Z,21.1
2022-08-05T02:39:33.598Z,20.9
2022-08-05T02:40:34.463Z,20.8
2022-08-05T02:41:36.280Z,20.8
2022-08-05T02:42:36.213Z,20.9
2022-08-05T02:43:34.526Z,20.9
2022-08-05T02:44:34.109Z,20.7
2022-08-05T02:45:51.360Z,20.8
2022-08-05T02:46:33.949Z,20.8
2022-08-05T02:47:36.619Z,20.7
2022-08-05T02:48:34.325Z,20.7
2022-08-05T02:49:37.636Z,20.9
2022-08-05T02:50:34.239Z,20.9
2022-08-05T02:52:01.367Z,20.8
2022-08-05T02:52:34.994Z,20.8
2022-08-05T02:53:36.030Z,20.8
2022-08-05T02:54:37.351Z,20.9
2022-08-05T02:55:52.374Z,20.9
2022-08-05T02:56:36.789Z,20.8
2022-08-05T02:58:08.828Z,20.9
2022-08-05T02:58:36.297Z,20.9
2022-08-05T02:59:48.029Z,20.9
2022-08-05T03:00:35.034Z,20.8
2022-08-05T03:01:36.159Z,20.8
2022-08-05T03:02:36.629Z,20.7
2022-08-05T03:04:02.344Z,20.7
2022-08-05T03:04:40.326Z,20.7
2022-08-05T03:06:52.981Z,20.6
2022-08-05T03:06:52.992Z,20.6
2022-08-05T03:07:48.556Z,20.6
2022-08-05T03:08:37.763Z,20.6
2022-08-05T03:09:36.644Z,20.6
2022-08-05T03:10:38.489Z,20.5
2022-08-05T03:11:54.153Z,20.4
2022-08-05T03:12:36.413Z,20.4
2022-08-05T03:13:51.257Z,20.4
2022-08-05T03:14:36.628Z,20.5
2022-08-05T03:15:36.639Z,20.6
2022-08-05T03:16:41.343Z,20.6
2022-08-05T03:17:41.557Z,20.9
2022-08-05T03:18:36.534Z,21
2022-08-05T03:19:36.630Z,21.1
2022-08-05T03:20:36.918Z,21.1
2022-08-05T03:21:41.498Z,20.9
2022-08-05T03:22:36.895Z,20.7
2022-08-05T03:23:50.860Z,20.4
2022-08-05T03:25:11.823Z,20.5
2022-08-05T03:26:30.732Z,20.3
2022-08-05T03:27:29.685Z,20.3
2022-08-05T03:28:30.002Z,20.4
2022-08-05T03:29:44.896Z,20.5
2022-08-05T03:30:33.379Z,20.7
2022-08-05T03:31:56.370Z,20.7
2022-08-05T03:32:34.400Z,20.7
2022-08-05T03:33:32.316Z,20.6
2022-08-05T03:34:34.685Z,20.4
2022-08-05T03:35:29.890Z,20.3
2022-08-05T03:36:32.186Z,20.2
2022-08-05T03:37:29.919Z,20.2
2022-08-05T03:38:33.052Z,20.3
2022-08-05T03:39:29.920Z,20.4
2022-08-05T03:40:31.624Z,20.4
2022-08-05T03:41:33.079Z,20.5
2022-08-05T03:42:32.864Z,20.4
2022-08-05T03:43:59.384Z,20.4
2022-08-05T03:44:32.650Z,20
2022-08-05T03:45:55.454Z,20
2022-08-05T03:46:32.486Z,20
2022-08-05T03:47:35.125Z,20
2022-08-05T03:48:35.283Z,19.9
2022-08-05T03:49:30.807Z,20.1
2022-08-05T03:50:30.651Z,20.1
2022-08-05T03:51:33.562Z,20.3
2022-08-05T03:53:12.424Z,20.5
2022-08-05T03:55:00.858Z,20.5
2022-08-05T03:55:07.261Z,20.3
2022-08-05T03:55:54.657Z,20.4
2022-08-05T03:56:34.761Z,20.2
2022-08-05T03:57:41.466Z,20.1
2022-08-05T03:58:34.168Z,20
2022-08-05T03:59:47.465Z,20
2022-08-05T04:00:23.882Z,20
2022-08-05T04:01:53.649Z,19.9
2022-08-05T04:01:58.825Z,19.9
2022-08-05T04:02:38.122Z,19.8
2022-08-05T04:04:10.867Z,19.6
2022-08-05T04:05:23.283Z,19.7
2022-08-05T04:05:33.455Z,19.5
2022-08-05T04:06:32.606Z,19.5
2022-08-05T04:07:53.113Z,19.6
2022-08-05T04:08:37.329Z,19.6
2022-08-05T04:09:36.614Z,19.5
2022-08-05T04:10:37.311Z,19.7
2022-08-05T04:11:47.778Z,19.6
2022-08-05T04:12:32.858Z,19.5
2022-08-05T04:13:50.771Z,19.5
2022-08-05T04:14:33.106Z,19.4
2022-08-05T04:15:35.965Z,19.5
2022-08-05T04:16:32.823Z,19.4
2022-08-05T04:17:36.377Z,19.2
2022-08-05T04:18:34.217Z,19.4
2022-08-05T04:19:33.106Z,19.5
2022-08-05T04:20:37.946Z,19.5
2022-08-05T04:22:05.964Z,19.4
2022-08-05T04:22:39.255Z,19.2
2022-08-05T04:23:57.538Z,19.2
2022-08-05T04:24:33.818Z,19.3
2022-08-05T04:25:38.583Z,19.3
2022-08-05T04:26:40.535Z,19.3
2022-08-05T04:27:42.022Z,19.4
2022-08-05T04:28:33.513Z,19.5
2022-08-05T04:29:33.663Z,19.5
2022-08-05T04:31:46.990Z,19.8
2022-08-05T04:32:34.530Z,19.7
2022-08-05T04:33:55.049Z,19.6
2022-08-05T04:34:35.918Z,19.7
2022-08-05T04:36:11.484Z,19.6
2022-08-05T04:36:45.058Z,19.5
2022-08-05T04:38:00.763Z,19.7
2022-08-05T04:38:39.384Z,19.9
2022-08-05T04:39:42.599Z,19.7
2022-08-05T04:40:43.743Z,19.5
2022-08-05T04:41:46.074Z,19.4
2022-08-05T04:42:34.430Z,19.4
2022-08-05T04:43:46.744Z,19.2
2022-08-05T04:44:36.329Z,19.4
2022-08-05T04:45:48.010Z,19.3
2022-08-05T04:46:37.199Z,19.3
2022-08-05T04:47:47.249Z,19.4
2022-08-05T04:48:35.308Z,19.2
2022-08-05T04:50:01.272Z,19.1
2022-08-05T04:50:37.471Z,19.3
2022-08-05T04:51:41.869Z,19.4
2022-08-05T04:52:35.421Z,19.4
2022-08-05T04:53:38.747Z,19.4
2022-08-05T04:54:35.201Z,19.5
2022-08-05T04:55:49.773Z,19.3
2022-08-05T04:56:40.567Z,19.3
2022-08-05T04:57:37.725Z,19.3
2022-08-05T04:58:35.626Z,19.4
2022-08-05T04:59:40.655Z,19.3
2022-08-05T05:00:40.778Z,19.3
2022-08-05T05:02:06.505Z,19.2
2022-08-05T05:02:41.693Z,19.4
2022-08-05T05:03:43.682Z,19.5
2022-08-05T05:04:43.807Z,19.6
2022-08-05T05:06:35.756Z,19.5
2022-08-05T05:06:44.355Z,19.7
2022-08-05T05:07:45.812Z,19.8
2022-08-05T05:08:36.365Z,19.7
2022-08-05T05:09:46.102Z,19.6
2022-08-05T05:10:41.278Z,19.5
2022-08-05T05:11:42.077Z,19.4
2022-08-05T05:12:36.755Z,19.6
2022-08-05T05:13:43.415Z,19.8
2022-08-05T05:14:36.799Z,19.8
2022-08-05T05:15:54.446Z,19.6
2022-08-05T05:16:36.726Z,19.3
2022-08-05T05:17:55.984Z,19.3
2022-08-05T05:18:52.404Z,19.4
2022-08-05T05:19:44.474Z,19.5
2022-08-05T05:20:38.635Z,19.4
2022-08-05T05:21:47.252Z,19.4
2022-08-05T05:22:40.816Z,19.6
2022-08-05T05:24:02.636Z,19.6
2022-08-05T05:24:56.523Z,19.7
2022-08-05T05:25:45.227Z,19.8
2022-08-05T05:26:51.785Z,19.7
2022-08-05T05:27:41.869Z,19.5
2022-08-05T05:28:42.759Z,19.5
2022-08-05T05:29:41.016Z,19.6
2022-08-05T05:30:38.722Z,19.6
2022-08-05T05:32:04.744Z,19.5
2022-08-05T05:32:38.727Z,19.4
2022-08-05T05:33:59.929Z,19.4
2022-08-05T05:34:43.702Z,19.5
2022-08-05T05:35:44.605Z,19.4
2022-08-05T05:36:39.345Z,19.6
2022-08-05T05:37:59.147Z,19.5
2022-08-05T05:38:38.729Z,19.5
2022-08-05T05:39:40.728Z,19.7
2022-08-05T05:40:50.173Z,19.6
2022-08-05T05:41:40.263Z,19.4
2022-08-05T05:42:48.600Z,19.4
2022-08-05T05:43:57.716Z,19.4
2022-08-05T05:44:44.489Z,19.6
2022-08-05T05:45:48.356Z,19.6
2022-08-05T05:46:39.289Z,19.7
2022-08-05T05:48:05.909Z,19.5
2022-08-05T05:48:38.908Z,19.5
2022-08-05T05:49:41.568Z,19.7
2022-08-05T05:50:40.971Z,19.9
2022-08-05T05:51:49.831Z,20
2022-08-05T05:52:42.268Z,20.1
2022-08-05T05:53:46.213Z,20
2022-08-05T05:54:50.735Z,20.1
2022-08-05T05:55:51.171Z,20.1
2022-08-05T05:56:40.163Z,20.1
2022-08-05T05:57:42.937Z,19.9
2022-08-05T05:58:44.573Z,19.8
2022-08-05T05:59:40.078Z,19.6
2022-08-05T06:00:39.830Z,19.5
2022-08-05T06:01:40.533Z,19.7
2022-08-05T06:02:39.826Z,19.9
2022-08-05T06:04:00.765Z,19.9
2022-08-05T06:04:40.107Z,19.9
2022-08-05T06:05:42.797Z,20
2022-08-05T06:06:41.626Z,20
2022-08-05T06:07:42.497Z,19.8
2022-08-05T06:08:40.237Z,19.4
2022-08-05T06:09:52.780Z,19.3
2022-08-05T06:10:49.265Z,19.5
2022-08-05T06:11:40.472Z,19.7
2022-08-05T06:12:42.049Z,19.7
2022-08-05T06:13:50.337Z,19.5
2022-08-05T06:14:40.668Z,19.5
2022-08-05T06:16:28.022Z,19.5
2022-08-05T06:16:40.777Z,19.6
2022-08-05T06:17:53.228Z,19.8
2022-08-05T06:18:41.300Z,19.8
2022-08-05T06:19:41.981Z,19.8
2022-08-05T06:20:41.668Z,20
2022-08-05T06:21:47.843Z,20.1
2022-08-05T06:22:41.187Z,19.8
2022-08-05T06:23:43.908Z,19.5
2022-08-05T06:24:42.247Z,19.7
2022-08-05T06:25:59.890Z,20
2022-08-05T06:26:51.139Z,20.1
2022-08-05T06:28:09.681Z,20
2022-08-05T06:29:24.815Z,19.8
2022-08-05T06:30:04.147Z,19.7
2022-08-05T06:31:02.388Z,19.9
2022-08-05T06:32:21.619Z,20.2
2022-08-05T06:33:02.355Z,20.1
2022-08-05T06:34:06.477Z,20.2
2022-08-05T06:35:05.740Z,20.2
2022-08-05T06:36:14.952Z,20.1
2022-08-05T06:37:02.736Z,20.4
2022-08-05T06:38:10.023Z,20.5
2022-08-05T06:39:02.809Z,20.4
2022-08-05T06:40:05.570Z,20.2
2022-08-05T06:41:03.287Z,20.3
2022-08-05T06:42:03.960Z,20.2
2022-08-05T06:43:03.624Z,20.2
2022-08-05T06:44:05.106Z,20.2
2022-08-05T06:45:05.386Z,20.1
2022-08-05T06:46:06.674Z,20
2022-08-05T06:47:04.204Z,19.9
2022-08-05T06:48:12.338Z,20
2022-08-05T06:49:05.675Z,20.3
2022-08-05T06:50:05.229Z,20.3
2022-08-05T06:51:09.420Z,20.3
2022-08-05T06:52:04.456Z,20.2
2022-08-05T06:53:11.361Z,20
2022-08-05T06:54:04.256Z,19.9
2022-08-05T06:55:04.176Z,19.8
2022-08-05T06:56:05.471Z,20.2
2022-08-05T06:57:18.905Z,20.1
2022-08-05T06:58:11.853Z,20
2022-08-05T06:59:08.613Z,20
2022-08-05T07:00:04.491Z,20
2022-08-05T07:01:04.568Z,19.9
2022-08-05T07:02:13.342Z,20
2022-08-05T07:03:04.637Z,20
2022-08-05T07:04:06.662Z,19.9
2022-08-05T07:05:11.609Z,19.9
2022-08-05T07:06:05.539Z,19.9
2022-08-05T07:07:06.249Z,19.9
2022-08-05T07:08:05.003Z,20
2022-08-05T07:09:10.001Z,20
2022-08-05T07:10:05.144Z,20.1
2022-08-05T07:11:05.188Z,20
2022-08-05T07:12:08.402Z,20
2022-08-05T07:13:07.459Z,20
2022-08-05T07:14:05.379Z,20.1
2022-08-05T07:15:05.418Z,20.3
2022-08-05T07:16:06.336Z,20.1
2022-08-05T07:17:57.621Z,19.9
2022-08-05T07:18:08.816Z,19.8
2022-08-05T07:19:05.759Z,19.9
2022-08-05T07:21:12.162Z,20.1
2022-08-05T07:22:07.602Z,20.1
2022-08-05T07:23:09.664Z,20.1
2022-08-05T07:24:06.105Z,20.1
2022-08-05T07:25:09.648Z,20.1
2022-08-05T07:26:07.557Z,20
2022-08-05T07:27:08.850Z,19.7
2022-08-05T07:28:09.743Z,19.9
2022-08-05T07:29:12.042Z,19.9
2022-08-05T07:30:22.598Z,19.9
2022-08-05T07:31:08.402Z,19.9
2022-08-05T07:32:06.707Z,19.9
2022-08-05T07:33:09.684Z,19.9
2022-08-05T07:34:07.192Z,19.9
2022-08-05T07:35:56.629Z,20
2022-08-05T07:36:20.410Z,20
2022-08-05T07:37:07.053Z,19.9
2022-08-05T07:38:07.656Z,19.9
2022-08-05T07:39:07.711Z,19.9
2022-08-05T07:40:26.402Z,19.9
2022-08-05T07:41:17.284Z,19.9
2022-08-05T07:42:13.666Z,19.8
2022-08-05T07:43:14.733Z,19.9
2022-08-05T07:44:14.010Z,19.9
2022-08-05T07:45:07.750Z,19.9
2022-08-05T07:46:18.244Z,19.9
2022-08-05T07:47:08.028Z,19.9
2022-08-05T07:48:07.895Z,19.9
2022-08-05T07:49:08.509Z,19.9
2022-08-05T07:50:08.070Z,19.9
2022-08-05T07:51:08.654Z,19.9
2022-08-05T07:52:09.411Z,19.7
2022-08-05T07:53:08.331Z,19.7
2022-08-05T07:54:11.490Z,19.6
2022-08-05T07:55:15.964Z,19.6
2022-08-05T07:56:39.562Z,19.6
2022-08-05T07:57:14.998Z,19.6
2022-08-05T07:58:55.150Z,19.6
2022-08-05T07:59:17.635Z,19.8
2022-08-05T08:00:18.654Z,19.8
2022-08-05T08:01:21.840Z,19.6
2022-08-05T08:02:17.991Z,19.7
2022-08-05T08:03:18.383Z,19.7
2022-08-05T08:04:22.338Z,19.6
2022-08-05T08:05:17.634Z,19.6
2022-08-05T08:06:17.689Z,19.6
2022-08-05T08:07:22.332Z,19.8
2022-08-05T08:08:21.640Z,19.8
2022-08-05T08:09:19.927Z,19.8
2022-08-05T08:10:20.655Z,19.8
2022-08-05T08:11:47.729Z,19.8
2022-08-05T08:13:21.829Z,19.9
2022-08-05T08:14:19.104Z,19.9
2022-08-05T08:15:37.042Z,20
2022-08-05T08:16:34.161Z,20.1
2022-08-05T08:17:21.270Z,20
2022-08-05T08:18:20.731Z,20.1
2022-08-05T08:19:37.919Z,20
2022-08-05T08:20:23.242Z,20.1
2022-08-05T08:21:19.839Z,20.1
2022-08-05T08:22:19.967Z,20.1
2022-08-05T08:24:00.561Z,20.2
2022-08-05T08:24:23.746Z,20.3
2022-08-05T08:25:26.661Z,20.3
2022-08-05T08:26:26.667Z,20.4
2022-08-05T08:27:31.501Z,20.2
2022-08-05T08:28:35.939Z,20.1
2022-08-05T08:29:45.609Z,20.3
2022-08-05T08:30:30.311Z,20.3
2022-08-05T08:31:21.260Z,20.1
2022-08-05T08:32:21.505Z,20
2022-08-05T08:33:21.278Z,20
2022-08-05T08:34:30.102Z,20.1
2022-08-05T08:35:26.517Z,20.2
2022-08-05T08:36:37.308Z,20.2
2022-08-05T08:37:20.451Z,20.2
2022-08-05T08:38:32.351Z,20.2
2022-08-05T08:39:20.133Z,20.3
2022-08-05T08:40:19.931Z,20.4
2022-08-05T08:41:20.282Z,20.5
2022-08-05T08:42:32.652Z,20.6
2022-08-05T08:43:21.055Z,20.6
2022-08-05T08:45:17.251Z,20.5
2022-08-05T08:45:25.982Z,20.3
2022-08-05T08:46:20.534Z,20.4
2022-08-05T08:48:41.537Z,20.3
2022-08-05T08:48:43.783Z,20.4
2022-08-05T08:50:08.131Z,20.5
2022-08-05T08:50:30.828Z,20.6
2022-08-05T08:52:02.589Z,20.5
2022-08-05T08:52:22.203Z,20.4
2022-08-05T08:53:25.976Z,20.4
2022-08-05T08:54:27.629Z,20.5
2022-08-05T08:55:32.291Z,20.5
2022-08-05T08:56:27.035Z,20.3
2022-08-05T08:57:22.579Z,20.4
2022-08-05T08:58:26.209Z,20.4
2022-08-05T08:59:21.677Z,20.4
2022-08-05T09:00:38.046Z,20.4
2022-08-05T09:01:22.035Z,20.4
2022-08-05T09:02:27.105Z,20.5
2022-08-05T09:03:22.463Z,20.7
2022-08-05T09:04:30.080Z,20.9
2022-08-05T09:05:38.027Z,20.9
2022-08-05T09:06:24.145Z,20.9
2022-08-05T09:07:28.732Z,20.8
2022-08-05T09:08:34.073Z,20.5
2022-08-05T09:09:34.901Z,20.4
2022-08-05T09:10:40.461Z,20.4
2022-08-05T09:11:50.538Z,20.5
2022-08-05T09:13:31.612Z,20.6
2022-08-05T09:14:55.450Z,20.7
2022-08-05T09:15:22.733Z,20.9
2022-08-05T09:16:22.798Z,21
2022-08-05T09:17:40.385Z,20.9
2022-08-05T09:18:27.110Z,20.7
2022-08-05T09:19:27.802Z,20.7
2022-08-05T09:20:36.843Z,20.6
2022-08-05T09:22:18.263Z,20.6
2022-08-05T09:22:31.437Z,20.6
2022-08-05T09:23:27.156Z,20.6
2022-08-05T09:24:28.828Z,20.7
2022-08-05T09:26:00.445Z,20.8
2022-08-05T09:26:30.165Z,20.8
2022-08-05T09:28:03.624Z,20.9
2022-08-05T09:28:31.785Z,20.8
2022-08-05T09:29:30.683Z,20.8
2022-08-05T09:30:25.549Z,20.8
2022-08-05T09:32:39.451Z,21
2022-08-05T09:32:50.267Z,21
2022-08-05T09:33:24.786Z,21.1
2022-08-05T09:34:26.073Z,21.3
2022-08-05T09:35:27.014Z,21.3
2022-08-05T09:36:27.505Z,21.1
2022-08-05T09:38:13.210Z,21
2022-08-05T09:38:27.181Z,21
2022-08-05T09:39:27.909Z,20.8
2022-08-05T09:40:24.651Z,20.8
2022-08-05T09:41:25.461Z,20.6
2022-08-05T09:42:28.645Z,20.6
2022-08-05T09:43:24.680Z,20.7
2022-08-05T09:44:27.563Z,20.6
2022-08-05T09:46:05.438Z,20.5
2022-08-05T09:46:27.228Z,20.5
2022-08-05T09:47:25.068Z,20.3
2022-08-05T09:48:35.479Z,20.4
2022-08-05T09:49:40.220Z,20.4
2022-08-05T09:50:32.459Z,20.5
2022-08-05T09:51:25.924Z,20.6
2022-08-05T09:52:26.679Z,20.7
2022-08-05T09:53:25.911Z,20.7
2022-08-05T09:54:29.529Z,20.7
2022-08-05T09:55:55.822Z,20.6
2022-08-05T09:56:26.190Z,20.7
2022-08-05T09:57:27.277Z,20.7
2022-08-05T09:58:25.782Z,20.5
2022-08-05T09:59:27.391Z,20.4
2022-08-05T10:00:30.836Z,20.5
2022-08-05T10:01:32.201Z,20.6
2022-08-05T10:02:27.659Z,20.6
2022-08-05T10:03:38.633Z,20.4
2022-08-05T10:04:28.707Z,20.4
2022-08-05T10:05:27.447Z,20.4
2022-08-05T10:06:28.849Z,20.4
2022-08-05T10:07:32.059Z,20.4
2022-08-05T10:08:35.589Z,20.3
2022-08-05T10:09:44.778Z,20.2
2022-08-05T10:10:28.281Z,20.3
2022-08-05T10:11:29.679Z,20.5
2022-08-05T10:12:34.144Z,20.8
2022-08-05T10:13:44.334Z,20.8
2022-08-05T10:14:27.405Z,20.9
2022-08-05T10:15:34.255Z,20.7
2022-08-05T10:16:29.609Z,20.6
2022-08-05T10:17:37.134Z,20.5
2022-08-05T10:18:32.446Z,20.5
2022-08-05T10:20:03.467Z,20.7
2022-08-05T10:20:32.860Z,20.7
2022-08-05T10:21:35.165Z,20.7
2022-08-05T10:22:29.644Z,20.6
2022-08-05T10:23:34.922Z,20.6
2022-08-05T10:24:28.525Z,20.7
2022-08-05T10:25:28.083Z,20.8
2022-08-05T10:26:46.706Z,20.8
2022-08-05T10:28:10.014Z,20.6
2022-08-05T10:28:48.231Z,20.4
2022-08-05T10:30:06.176Z,20.3
2022-08-05T10:31:21.258Z,20.4
2022-08-05T10:32:50.023Z,20.5
2022-08-05T10:32:51.285Z,20.4
2022-08-05T10:33:29.779Z,20.5
2022-08-05T10:34:31.767Z,20.3
2022-08-05T10:35:33.875Z,20
2022-08-05T10:36:35.835Z,20
2022-08-05T10:37:37.113Z,20
2022-08-05T10:38:29.803Z,19.9
2022-08-05T10:39:59.552Z,19.9
2022-08-05T10:40:30.812Z,20
2022-08-05T10:41:45.108Z,20.1
2022-08-05T10:42:32.618Z,20.1
2022-08-05T10:43:30.786Z,20.1
2022-08-05T10:44:30.256Z,20
2022-08-05T10:45:30.461Z,20
2022-08-05T10:46:30.874Z,20
2022-08-05T10:47:31.194Z,19.8
2022-08-05T10:48:34.413Z,19.7
2022-08-05T10:49:32.907Z,19.8
2022-08-05T10:50:32.778Z,19.8
2022-08-05T10:51:30.713Z,19.7
2022-08-05T10:52:30.778Z,19.7
2022-08-05T10:53:32.376Z,19.5
2022-08-05T10:54:34.936Z,19.5
2022-08-05T10:55:38.651Z,19.6
2022-08-05T10:56:32.648Z,19.5
2022-08-05T10:57:34.439Z,19.4
2022-08-05T10:58:47.938Z,19.4
2022-08-05T11:00:02.321Z,19.5
2022-08-05T11:00:42.084Z,19.4
2022-08-05T11:01:54.344Z,19.3
2022-08-05T11:02:38.565Z,19.4
2022-08-05T11:03:36.517Z,19.5
2022-08-05T11:04:40.360Z,19.3
2022-08-05T11:05:36.647Z,19.4
2022-08-05T11:06:37.657Z,19.3
2022-08-05T11:08:01.681Z,19.4
2022-08-05T11:08:38.009Z,19.3
2022-08-05T11:09:45.063Z,19
2022-08-05T11:11:45.000Z,19.1
2022-08-05T11:12:41.088Z,19.3
2022-08-05T11:18:14.620Z,19
2022-08-05T11:20:09.542Z,18.9
2022-08-05T11:20:17.748Z,18.9
2022-08-05T11:21:16.219Z,19
2022-08-05T11:22:16.593Z,19.1
2022-08-05T11:23:15.608Z,19
2022-08-05T11:24:30.484Z,19.1
2022-08-05T11:25:16.684Z,18.9
2022-08-05T11:26:15.318Z,18.9
2022-08-05T11:27:17.807Z,19
2022-08-05T11:28:17.019Z,19
2022-08-05T11:29:16.598Z,18.9
2022-08-05T11:30:17.054Z,18.9
2022-08-05T11:31:19.678Z,19
2022-08-05T11:32:15.529Z,19.1
2022-08-05T11:33:20.891Z,19.2
2022-08-05T11:36:40.389Z,18.5
2022-08-05T11:38:27.125Z,18.5
2022-08-05T11:38:45.318Z,18.6
2022-08-05T11:39:32.831Z,18.6
2022-08-05T11:40:33.098Z,18.7
2022-08-05T11:41:58.434Z,18.7
2022-08-05T11:42:38.159Z,18.8
2022-08-05T11:44:01.253Z,18.7
2022-08-05T11:44:40.975Z,18.8
2022-08-05T11:46:15.925Z,18.7
2022-08-05T11:46:33.550Z,18.6
2022-08-05T11:47:48.370Z,18.7
2022-08-05T11:48:33.316Z,19
2022-08-05T11:49:42.880Z,19
2022-08-05T11:50:33.353Z,18.9
2022-08-05T11:51:43.882Z,18.9
2022-08-05T11:52:34.066Z,18.9
2022-08-05T11:53:40.795Z,18.8
2022-08-05T11:54:34.440Z,18.8
2022-08-05T11:55:36.207Z,19
2022-08-05T11:56:40.815Z,19.3
2022-08-05T11:57:39.479Z,19.3
2022-08-05T11:58:33.829Z,19.6
2022-08-05T11:59:41.327Z,19.5
2022-08-05T12:00:37.959Z,19.3
2022-08-05T12:01:35.273Z,19.1
2022-08-05T12:02:41.044Z,19.2
2022-08-05T12:03:35.490Z,19.4
2022-08-05T12:10:39.026Z,19.9
2022-08-05T12:11:40.051Z,20.2
2022-08-05T12:12:27.813Z,20.2
2022-08-05T12:13:28.270Z,20.2
2022-08-05T12:14:29.989Z,20.2
2022-08-05T12:15:36.001Z,20.3
2022-08-05T12:16:30.446Z,20.3
2022-08-05T12:17:43.244Z,20.4
2022-08-05T12:18:32.937Z,20.6
2022-08-05T12:20:17.588Z,20.7
2022-08-05T12:20:33.611Z,20.9
2022-08-05T12:21:29.724Z,21
2022-08-05T12:22:31.230Z,21
2022-08-05T12:23:33.466Z,21.2
2022-08-05T12:24:28.038Z,21
2022-08-05T12:25:32.412Z,20.9
2022-08-05T12:26:29.723Z,20.9
2022-08-05T12:28:31.051Z,21.1
2022-08-05T12:29:28.295Z,21.4
2022-08-05T12:30:32.273Z,22
2022-08-05T12:31:33.797Z,22.4
2022-08-05T12:32:29.463Z,22.5
2022-08-05T12:33:36.128Z,22.3
2022-08-05T12:34:28.750Z,22.2
2022-08-05T12:35:37.064Z,22.2
2022-08-05T12:36:35.544Z,22.3
2022-08-05T12:37:29.909Z,22.2
2022-08-05T12:38:41.550Z,22.8
2022-08-05T12:39:34.794Z,22.8
2022-08-05T12:40:31.904Z,22.8
2022-08-05T12:41:34.256Z,22.5
2022-08-05T12:42:29.622Z,22.3
2022-08-05T12:43:32.108Z,21.7
2022-08-05T12:44:33.126Z,21.4
2022-08-05T12:45:36.847Z,21.7
2022-08-05T12:46:31.763Z,22.2
2022-08-05T12:47:31.555Z,22.3
2022-08-05T12:48:32.445Z,22.6
2022-08-05T12:49:29.565Z,22.5
2022-08-05T12:50:32.050Z,22.7
2022-08-05T12:52:10.073Z,22.5
2022-08-05T12:52:35.562Z,22.6
2022-08-05T12:53:36.709Z,22.6
2022-08-05T12:54:35.538Z,22.6
2022-08-05T12:55:32.707Z,22.7
2022-08-05T12:56:34.797Z,22.5
2022-08-05T12:57:31.716Z,22.4
2022-08-05T12:58:39.546Z,22.6
2022-08-05T12:59:47.051Z,22.7
2022-08-05T13:01:58.784Z,22.9
2022-08-05T13:01:59.601Z,22.8
2022-08-05T13:02:32.210Z,23.2
2022-08-05T13:04:59.865Z,23.7
2022-08-05T13:05:33.942Z,23.3
2022-08-05T13:06:31.470Z,23.1
2022-08-05T13:07:56.414Z,23.2
2022-08-05T13:08:32.169Z,23.3
2022-08-05T13:09:31.030Z,23.4
2022-08-05T13:10:38.802Z,23.3
2022-08-05T13:12:01.006Z,23.1
2022-08-05T13:12:42.462Z,23.2
2022-08-05T13:14:04.388Z,23.2
2022-08-05T13:14:39.160Z,23.4
2022-08-05T13:15:41.860Z,23.8
2022-08-05T13:16:39.347Z,23.6
2022-08-05T13:17:41.644Z,23.6
2022-08-05T13:18:39.731Z,23.5
2022-08-05T13:19:51.145Z,23.7
2022-08-05T13:20:40.264Z,23.7
2022-08-05T13:21:48.109Z,23.6
2022-08-05T13:22:41.564Z,23.6
2022-08-05T13:23:39.609Z,23.7
2022-08-05T13:24:51.260Z,23.7
2022-08-05T13:25:51.384Z,23.7
2022-08-05T13:26:39.986Z,23.8
2022-08-05T13:27:40.227Z,23.6
2022-08-05T13:28:40.839Z,23.4
2022-08-05T13:29:40.097Z,23.5
2022-08-05T13:30:42.121Z,23.5
2022-08-05T13:32:03.654Z,23.7
2022-08-05T13:32:42.025Z,24
2022-08-05T13:34:20.577Z,24.1
2022-08-05T13:38:43.477Z,23.4
2022-08-05T13:40:14.698Z,23.5
2022-08-05T13:40:50.063Z,23.3
2022-08-05T13:41:41.531Z,23.2
2022-08-05T13:42:41.983Z,23.3
2022-08-05T13:43:43.756Z,23.4
2022-08-05T13:44:44.957Z,23.5
2022-08-05T13:45:43.428Z,23.6
2022-08-05T13:47:02.081Z,23.7
2022-08-05T13:48:09.042Z,23.7
2022-08-05T13:48:57.047Z,23.9
2022-08-05T13:49:45.066Z,23.6
2022-08-05T13:50:45.421Z,23.6
2022-08-05T13:51:45.918Z,24.1
2022-08-05T13:52:42.266Z,24
2022-08-05T13:53:47.618Z,23.9